createdAt,value
2016-12-01T00:00:07.847Z,67.77
2016-12-01T00:01:08.398Z,67.66
2016-12-01T00:02:13.706Z,67.88
2016-12-01T00:03:08.805Z,67.54
2016-12-01T00:04:08.388Z,67.53
2016-12-01T00:05:08.173Z,67.31
2016-12-01T00:06:07.763Z,67.39
2016-12-01T00:07:08.329Z,67.68
2016-12-01T00:08:07.831Z,67.33
2016-12-01T00:09:08.428Z,67.18
2016-12-01T00:10:07.943Z,67.47
2016-12-01T00:11:07.487Z,67.59
2016-12-01T00:12:08.188Z,67.17
2016-12-01T00:13:07.807Z,66.91
2016-12-01T00:14:08.433Z,66.28
2016-12-01T00:15:08.054Z,66.71
2016-12-01T00:16:07.567Z,66.73
2016-12-01T00:17:08.312Z,66.75
2016-12-01T00:18:07.857Z,66.69
2016-12-01T00:19:08.525Z,66.52
2016-12-01T00:20:08.205Z,66.93
2016-12-01T00:21:07.746Z,66.61
2016-12-01T00:22:08.289Z,66.66
2016-12-01T00:23:07.818Z,67.06
2016-12-01T00:24:08.652Z,66.52
2016-12-01T00:25:08.377Z,66.68
2016-12-01T00:26:07.936Z,66.71
2016-12-01T00:27:07.474Z,66.81
2016-12-01T00:28:08.030Z,66.72
2016-12-01T00:29:07.566Z,66.79
2016-12-01T00:30:08.156Z,66.98
2016-12-01T00:31:07.727Z,66.70
2016-12-01T00:32:08.319Z,66.88
2016-12-01T00:33:07.789Z,67.39
2016-12-01T00:34:08.333Z,67.49
2016-12-01T00:35:08.043Z,67.46
2016-12-01T00:36:07.518Z,67.50
2016-12-01T00:37:08.175Z,67.37
2016-12-01T00:38:07.621Z,67.89
2016-12-01T00:39:08.216Z,68.16
2016-12-01T00:40:07.730Z,68.10
2016-12-01T00:41:08.455Z,68.12
2016-12-01T00:42:07.928Z,67.81
2016-12-01T00:43:08.416Z,67.91
2016-12-01T00:44:08.164Z,67.96
2016-12-01T00:45:07.797Z,68.08
2016-12-01T00:46:08.390Z,68.41
2016-12-01T00:47:08.055Z,68.29
2016-12-01T00:48:07.599Z,68.52
2016-12-01T00:49:08.617Z,68.61
2016-12-01T00:50:08.288Z,68.48
2016-12-01T00:51:07.805Z,68.20
2016-12-01T00:52:08.405Z,68.39
2016-12-01T00:53:07.945Z,67.88
2016-12-01T00:54:08.055Z,67.95
2016-12-01T00:55:07.622Z,67.96
2016-12-01T00:56:08.549Z,67.86
2016-12-01T00:57:08.128Z,68.34
2016-12-01T00:58:07.686Z,67.81
2016-12-01T00:59:08.271Z,68.20
2016-12-01T01:00:07.915Z,68.05
2016-12-01T01:01:08.561Z,67.70
2016-12-01T01:02:08.442Z,67.89
2016-12-01T01:03:08.177Z,67.85
2016-12-01T01:04:08.132Z,68.00
2016-12-01T01:05:07.796Z,68.06
2016-12-01T01:06:08.436Z,67.49
2016-12-01T01:07:08.144Z,68.21
2016-12-01T01:08:07.931Z,68.23
2016-12-01T01:09:07.513Z,68.18
2016-12-01T01:10:08.055Z,68.15
2016-12-01T01:11:07.526Z,68.39
2016-12-01T01:12:08.019Z,68.46
2016-12-01T01:13:08.305Z,68.56
2016-12-01T01:14:08.143Z,68.56
2016-12-01T01:15:07.733Z,68.97
2016-12-01T01:16:08.182Z,69.01
2016-12-01T01:17:08.354Z,68.84
2016-12-01T01:18:07.995Z,68.61
2016-12-01T01:19:07.474Z,68.36
2016-12-01T01:20:08.094Z,68.48
2016-12-01T01:21:07.649Z,68.93
2016-12-01T01:22:09.615Z,69.13
2016-12-01T01:23:08.505Z,68.88
2016-12-01T01:24:08.225Z,69.05
2016-12-01T01:25:07.818Z,69.43
2016-12-01T01:26:08.445Z,69.08
2016-12-01T01:27:08.030Z,69.30
2016-12-01T01:28:07.736Z,69.24
2016-12-01T01:29:08.373Z,69.72
2016-12-01T01:30:08.355Z,70.04
2016-12-01T01:31:07.913Z,69.85
2016-12-01T01:32:08.422Z,69.93
2016-12-01T01:33:08.389Z,69.58
2016-12-01T01:34:08.397Z,69.64
2016-12-01T01:35:07.959Z,69.54
2016-12-01T01:36:07.495Z,69.73
2016-12-01T01:37:09.397Z,70.09
2016-12-01T01:38:07.958Z,70.26
2016-12-01T01:39:07.655Z,70.51
2016-12-01T01:40:08.329Z,70.97
2016-12-01T01:41:07.819Z,70.91
2016-12-01T01:42:08.308Z,71.27
2016-12-01T01:43:07.764Z,71.28
2016-12-01T01:44:08.278Z,71.61
2016-12-01T01:45:07.805Z,71.22
2016-12-01T01:46:08.513Z,71.78
2016-12-01T01:47:08.170Z,71.65
2016-12-01T01:48:07.742Z,71.77
2016-12-01T01:49:08.898Z,71.54
2016-12-01T01:50:08.565Z,71.56
2016-12-01T01:51:08.466Z,71.89
2016-12-01T01:52:07.611Z,72.29
2016-12-01T01:53:08.066Z,72.12
2016-12-01T01:54:07.576Z,72.03
2016-12-01T01:55:08.311Z,71.77
2016-12-01T01:56:07.566Z,71.77
2016-12-01T01:57:08.083Z,71.82
2016-12-01T01:58:08.300Z,72.55
2016-12-01T01:59:08.171Z,72.72
2016-12-01T02:00:07.784Z,72.80
2016-12-01T02:01:07.756Z,72.51
2016-12-01T02:02:07.557Z,72.62
2016-12-01T02:03:08.109Z,72.92
2016-12-01T02:04:08.511Z,72.65
2016-12-01T02:05:08.100Z,73.45
2016-12-01T02:06:07.872Z,73.37
2016-12-01T02:07:08.331Z,73.74
2016-12-01T02:08:08.202Z,73.36
2016-12-01T02:09:07.850Z,73.18
2016-12-01T02:10:07.592Z,73.25
2016-12-01T02:11:08.403Z,73.26
2016-12-01T02:12:07.990Z,73.18
2016-12-01T02:13:07.894Z,72.92
2016-12-01T02:14:08.365Z,72.80
2016-12-01T02:15:07.588Z,73.19
2016-12-01T02:16:08.080Z,72.69
2016-12-01T02:17:07.860Z,73.02
2016-12-01T02:18:08.347Z,72.98
2016-12-01T02:19:07.731Z,73.10
2016-12-01T02:20:07.523Z,72.52
2016-12-01T02:21:08.360Z,72.55
2016-12-01T02:22:07.841Z,73.50
2016-12-01T02:23:08.425Z,73.26
2016-12-01T02:24:07.969Z,73.43
2016-12-01T02:25:07.501Z,73.14
2016-12-01T02:26:07.652Z,72.80
2016-12-01T02:27:08.175Z,72.20
2016-12-01T02:28:07.739Z,72.40
2016-12-01T02:29:08.309Z,72.34
2016-12-01T02:30:08.283Z,72.20
2016-12-01T02:31:07.819Z,72.04
2016-12-01T02:32:14.060Z,72.18
2016-12-01T02:33:07.621Z,72.53
2016-12-01T02:34:08.199Z,72.24
2016-12-01T02:35:07.896Z,71.61
2016-12-01T02:36:08.430Z,71.55
2016-12-01T02:37:08.134Z,71.56
2016-12-01T02:38:08.142Z,71.37
2016-12-01T02:39:07.945Z,71.19
2016-12-01T02:40:07.465Z,71.65
2016-12-01T02:41:08.291Z,71.53
2016-12-01T02:42:07.691Z,71.42
2016-12-01T02:43:08.436Z,71.79
2016-12-01T02:44:08.032Z,71.75
2016-12-01T02:45:07.651Z,71.27
2016-12-01T02:46:08.151Z,70.94
2016-12-01T02:47:07.777Z,70.71
2016-12-01T02:48:07.506Z,70.59
2016-12-01T02:49:08.072Z,70.30
2016-12-01T02:50:07.538Z,70.27
2016-12-01T02:51:08.037Z,70.89
2016-12-01T02:52:07.724Z,70.48
2016-12-01T02:53:08.011Z,70.22
2016-12-01T02:54:08.213Z,70.70
2016-12-01T02:55:07.954Z,70.07
2016-12-01T02:56:07.463Z,69.75
2016-12-01T02:57:07.924Z,69.53
2016-12-01T02:58:07.855Z,69.65
2016-12-01T02:59:08.470Z,69.43
2016-12-01T03:00:08.140Z,69.29
2016-12-01T03:01:07.770Z,69.19
2016-12-01T03:02:08.420Z,69.16
2016-12-01T03:03:08.124Z,68.56
2016-12-01T03:04:07.902Z,68.58
2016-12-01T03:05:08.444Z,69.12
2016-12-01T03:06:07.965Z,69.14
2016-12-01T03:07:07.558Z,68.68
2016-12-01T03:08:08.108Z,68.74
2016-12-01T03:09:07.978Z,69.15
2016-12-01T03:10:07.740Z,68.69
2016-12-01T03:11:08.593Z,68.85
2016-12-01T03:12:08.356Z,68.21
2016-12-01T03:13:07.899Z,68.56
2016-12-01T03:14:09.564Z,68.68
2016-12-01T03:15:08.237Z,69.47
2016-12-01T03:16:07.715Z,68.35
2016-12-01T03:17:08.457Z,68.18
2016-12-01T03:18:08.259Z,68.33
2016-12-01T03:19:07.851Z,68.19
2016-12-01T03:20:08.320Z,68.20
2016-12-01T03:21:07.871Z,67.70
2016-12-01T03:22:08.319Z,67.23
2016-12-01T03:23:08.324Z,67.35
2016-12-01T03:24:07.877Z,67.54
2016-12-01T03:25:09.474Z,67.52
2016-12-01T03:26:07.980Z,67.73
2016-12-01T03:27:07.468Z,68.07
2016-12-01T03:28:08.160Z,67.92
2016-12-01T03:29:07.772Z,67.68
2016-12-01T03:30:09.551Z,67.73
2016-12-01T03:31:08.305Z,67.67
2016-12-01T03:32:08.050Z,68.27
2016-12-01T03:33:07.665Z,67.78
2016-12-01T03:34:08.286Z,67.70
2016-12-01T03:35:09.147Z,67.72
2016-12-01T03:36:07.617Z,67.58
2016-12-01T03:37:08.137Z,67.83
2016-12-01T03:38:07.670Z,67.61
2016-12-01T03:39:08.159Z,68.06
2016-12-01T03:40:07.727Z,68.33
2016-12-01T03:41:08.436Z,67.98
2016-12-01T03:42:13.747Z,68.02
2016-12-01T03:43:08.370Z,67.57
2016-12-01T03:44:08.853Z,67.95
2016-12-01T03:45:07.855Z,68.18
2016-12-01T03:46:08.489Z,69.29
2016-12-01T03:47:08.070Z,68.35
2016-12-01T03:48:07.660Z,68.22
2016-12-01T03:49:08.204Z,67.99
2016-12-01T03:50:07.736Z,68.18
2016-12-01T03:51:08.339Z,68.15
2016-12-01T03:52:07.956Z,68.46
2016-12-01T03:53:07.741Z,68.38
2016-12-01T03:54:08.360Z,68.09
2016-12-01T03:55:08.379Z,68.62
2016-12-01T03:56:07.957Z,68.06
2016-12-01T03:57:07.620Z,68.40
2016-12-01T03:58:08.250Z,68.37
2016-12-01T03:59:08.177Z,68.15
2016-12-01T04:00:08.064Z,68.40
2016-12-01T04:01:07.568Z,67.51
2016-12-01T04:02:08.186Z,67.60
2016-12-01T04:03:08.121Z,67.92
2016-12-01T04:04:07.640Z,68.09
2016-12-01T04:05:08.189Z,67.48
2016-12-01T04:06:07.796Z,67.57
2016-12-01T04:07:08.391Z,67.92
2016-12-01T04:08:07.947Z,67.90
2016-12-01T04:09:07.500Z,67.95
2016-12-01T04:10:08.134Z,67.64
2016-12-01T04:11:07.691Z,67.52
2016-12-01T04:12:08.313Z,67.68
2016-12-01T04:13:08.056Z,67.94
2016-12-01T04:14:07.584Z,67.99
2016-12-01T04:15:08.058Z,67.85
2016-12-01T04:16:08.269Z,67.92
2016-12-01T04:17:07.893Z,67.45
2016-12-01T04:18:08.562Z,67.58
2016-12-01T04:19:08.006Z,67.47
2016-12-01T04:20:07.993Z,67.16
2016-12-01T04:21:07.573Z,67.94
2016-12-01T04:22:08.503Z,67.81
2016-12-01T04:23:08.112Z,67.92
2016-12-01T04:24:07.665Z,67.71
2016-12-01T04:25:08.235Z,67.64
2016-12-01T04:26:07.827Z,67.40
2016-12-01T04:27:08.422Z,67.94
2016-12-01T04:28:07.993Z,67.97
2016-12-01T04:29:07.499Z,68.14
2016-12-01T04:30:08.095Z,68.55
2016-12-01T04:31:07.616Z,68.54
2016-12-01T04:32:08.257Z,68.35
2016-12-01T04:33:07.945Z,68.77
2016-12-01T04:34:07.714Z,68.38
2016-12-01T04:35:08.178Z,68.65
2016-12-01T04:36:13.983Z,68.84
2016-12-01T04:37:07.644Z,68.64
2016-12-01T04:38:08.336Z,68.34
2016-12-01T04:39:07.904Z,68.01
2016-12-01T04:40:08.503Z,68.39
2016-12-01T04:41:08.053Z,68.43
2016-12-01T04:42:07.583Z,68.31
2016-12-01T04:43:08.198Z,68.39
2016-12-01T04:44:07.675Z,68.53
2016-12-01T04:45:08.228Z,68.71
2016-12-01T04:46:07.779Z,68.68
2016-12-01T04:47:08.380Z,68.64
2016-12-01T04:48:08.009Z,68.84
2016-12-01T04:49:07.599Z,68.19
2016-12-01T04:50:08.182Z,68.51
2016-12-01T04:51:07.739Z,68.34
2016-12-01T04:52:08.285Z,68.75
2016-12-01T04:53:07.915Z,69.02
2016-12-01T04:54:08.525Z,68.70
2016-12-01T04:55:08.176Z,68.74
2016-12-01T04:56:07.669Z,68.58
2016-12-01T04:57:08.551Z,68.34
2016-12-01T04:58:08.410Z,68.39
2016-12-01T04:59:08.038Z,68.03
2016-12-01T05:00:07.706Z,68.45
2016-12-01T05:01:09.143Z,68.63
2016-12-01T05:02:07.587Z,68.61
2016-12-01T05:03:08.201Z,68.25
2016-12-01T05:04:07.739Z,68.63
2016-12-01T05:05:08.221Z,68.83
2016-12-01T05:06:08.126Z,68.78
2016-12-01T05:07:07.584Z,68.55
2016-12-01T05:08:07.482Z,68.74
2016-12-01T05:09:08.432Z,68.89
2016-12-01T05:10:07.982Z,68.69
2016-12-01T05:11:07.433Z,68.62
2016-12-01T05:12:08.010Z,68.20
2016-12-01T05:13:07.427Z,68.41
2016-12-01T05:14:08.043Z,68.70
2016-12-01T05:15:07.591Z,68.44
2016-12-01T05:16:08.171Z,68.19
2016-12-01T05:17:07.781Z,67.91
2016-12-01T05:18:08.355Z,68.12
2016-12-01T05:19:22.496Z,67.17
2016-12-01T05:20:07.961Z,67.05
2016-12-01T05:21:07.855Z,67.34
2016-12-01T05:22:08.599Z,67.60
2016-12-01T05:23:08.216Z,67.10
2016-12-01T05:24:07.743Z,67.07
2016-12-01T05:25:10.760Z,66.86
2016-12-01T05:26:08.455Z,66.66
2016-12-01T05:27:08.171Z,66.42
2016-12-01T05:28:08.412Z,66.27
2016-12-01T05:29:07.980Z,66.13
2016-12-01T05:30:07.500Z,66.44
2016-12-01T05:31:07.980Z,66.78
2016-12-01T05:32:07.895Z,66.48
2016-12-01T05:33:07.953Z,66.29
2016-12-01T05:34:07.548Z,65.99
2016-12-01T05:35:08.200Z,65.55
2016-12-01T05:36:07.692Z,65.77
2016-12-01T05:37:08.324Z,65.45
2016-12-01T05:38:07.950Z,65.93
2016-12-01T05:39:07.427Z,65.81
2016-12-01T05:40:08.059Z,66.20
2016-12-01T05:41:07.559Z,65.66
2016-12-01T05:42:08.161Z,65.27
2016-12-01T05:43:07.642Z,65.08
2016-12-01T05:44:08.210Z,65.29
2016-12-01T05:45:07.743Z,65.24
2016-12-01T05:46:08.340Z,65.36
2016-12-01T05:47:07.939Z,65.19
2016-12-01T05:48:07.441Z,65.35
2016-12-01T05:49:08.053Z,65.65
2016-12-01T05:50:07.707Z,65.53
2016-12-01T05:51:08.297Z,65.50
2016-12-01T05:52:07.929Z,65.40
2016-12-01T05:53:08.589Z,64.99
2016-12-01T05:54:08.119Z,64.95
2016-12-01T05:55:07.876Z,65.67
2016-12-01T05:56:08.355Z,65.16
2016-12-01T05:57:08.447Z,64.94
2016-12-01T05:58:08.100Z,65.00
2016-12-01T05:59:07.571Z,65.25
2016-12-01T06:00:08.192Z,65.56
2016-12-01T06:01:13.356Z,65.55
2016-12-01T06:02:07.821Z,65.87
2016-12-01T06:03:08.485Z,65.66
2016-12-01T06:04:08.080Z,66.10
2016-12-01T06:05:07.666Z,65.87
2016-12-01T06:06:08.112Z,65.70
2016-12-01T06:07:09.291Z,65.69
2016-12-01T06:08:07.876Z,65.76
2016-12-01T06:09:08.433Z,65.78
2016-12-01T06:10:08.059Z,65.57
2016-12-01T06:11:07.528Z,66.05
2016-12-01T06:12:08.086Z,65.33
2016-12-01T06:13:07.642Z,65.34
2016-12-01T06:14:08.311Z,65.18
2016-12-01T06:15:08.201Z,65.70
2016-12-01T06:16:07.863Z,65.34
2016-12-01T06:17:08.660Z,65.30
2016-12-01T06:18:08.313Z,65.35
2016-12-01T06:19:07.889Z,65.30
2016-12-01T06:20:08.540Z,65.61
2016-12-01T06:21:08.165Z,65.56
2016-12-01T06:22:07.673Z,66.05
2016-12-01T06:23:08.346Z,65.96
2016-12-01T06:24:07.889Z,65.89
2016-12-01T06:25:08.599Z,65.27
2016-12-01T06:26:08.117Z,65.09
2016-12-01T06:27:07.700Z,65.10
2016-12-01T06:28:08.357Z,64.85
2016-12-01T06:29:07.875Z,64.81
2016-12-01T06:30:08.541Z,65.33
2016-12-01T06:31:08.113Z,65.49
2016-12-01T06:32:08.258Z,65.41
2016-12-01T06:33:07.805Z,65.55
2016-12-01T06:34:08.463Z,64.57
2016-12-01T06:35:08.151Z,64.94
2016-12-01T06:36:07.821Z,64.60
2016-12-01T06:37:08.418Z,64.70
2016-12-01T06:38:08.017Z,65.02
2016-12-01T06:39:07.581Z,64.97
2016-12-01T06:40:08.211Z,65.00
2016-12-01T06:41:07.786Z,64.35
2016-12-01T06:42:08.447Z,64.21
2016-12-01T06:43:08.019Z,64.20
2016-12-01T06:44:07.604Z,64.26
2016-12-01T06:45:08.197Z,64.41
2016-12-01T06:46:08.374Z,64.47
2016-12-01T06:47:07.978Z,65.29
2016-12-01T06:48:07.447Z,65.39
2016-12-01T06:49:08.115Z,64.92
2016-12-01T06:50:07.596Z,64.85
2016-12-01T06:51:08.234Z,65.52
2016-12-01T06:52:07.809Z,63.96
2016-12-01T06:53:08.426Z,64.06
2016-12-01T06:54:07.987Z,63.81
2016-12-01T06:55:14.097Z,63.60
2016-12-01T06:56:07.696Z,62.76
2016-12-01T06:57:08.221Z,63.19
2016-12-01T06:58:07.731Z,63.90
2016-12-01T06:59:08.385Z,62.46
2016-12-01T07:00:09.769Z,62.30
2016-12-01T07:01:08.412Z,62.87
2016-12-01T07:02:07.947Z,63.04
2016-12-01T07:03:07.487Z,63.01
2016-12-01T07:04:08.061Z,61.81
2016-12-01T07:05:07.577Z,62.23
2016-12-01T07:06:08.220Z,62.02
2016-12-01T07:07:08.085Z,62.06
2016-12-01T07:08:07.719Z,61.77
2016-12-01T07:09:08.360Z,61.58
2016-12-01T07:10:07.970Z,61.79
2016-12-01T07:11:07.447Z,62.46
2016-12-01T07:12:08.026Z,62.22
2016-12-01T07:13:07.555Z,62.02
2016-12-01T07:14:08.236Z,62.17
2016-12-01T07:15:07.780Z,62.37
2016-12-01T07:16:08.402Z,61.16
2016-12-01T07:17:08.028Z,61.22
2016-12-01T07:18:08.395Z,60.83
2016-12-01T07:19:07.988Z,61.38
2016-12-01T07:20:07.485Z,61.14
2016-12-01T07:21:08.170Z,60.71
2016-12-01T07:22:07.708Z,61.27
2016-12-01T07:23:08.410Z,62.01
2016-12-01T07:24:08.003Z,61.61
2016-12-01T07:25:07.562Z,62.81
2016-12-01T07:26:08.014Z,61.51
2016-12-01T07:27:08.474Z,61.23
2016-12-01T07:28:08.064Z,62.23
2016-12-01T07:29:07.619Z,62.51
2016-12-01T07:30:08.259Z,62.41
2016-12-01T07:31:07.738Z,61.33
2016-12-01T07:32:08.363Z,62.25
2016-12-01T07:33:07.939Z,61.36
2016-12-01T07:34:07.537Z,61.74
2016-12-01T07:35:08.000Z,61.33
2016-12-01T07:36:07.513Z,61.79
2016-12-01T07:37:08.137Z,61.55
2016-12-01T07:38:07.651Z,61.73
2016-12-01T07:39:08.283Z,61.54
2016-12-01T07:40:07.960Z,62.28
2016-12-01T07:41:07.432Z,63.45
2016-12-01T07:42:07.920Z,62.86
2016-12-01T07:43:08.440Z,61.79
2016-12-01T07:44:08.015Z,61.73
2016-12-01T07:45:07.602Z,61.77
2016-12-01T07:46:08.217Z,61.95
2016-12-01T07:47:07.841Z,61.60
2016-12-01T07:48:08.507Z,61.98
2016-12-01T07:49:08.105Z,62.58
2016-12-01T07:50:07.877Z,62.39
2016-12-01T07:51:08.385Z,61.96
2016-12-01T07:52:08.544Z,62.88
2016-12-01T07:53:08.008Z,63.34
2016-12-01T07:54:07.658Z,62.38
2016-12-01T07:55:08.204Z,62.42
2016-12-01T07:56:14.457Z,62.35
2016-12-01T07:57:08.118Z,62.87
2016-12-01T07:58:07.638Z,62.53
2016-12-01T07:59:08.268Z,62.85
2016-12-01T08:00:07.932Z,62.30
2016-12-01T08:01:07.517Z,62.10
2016-12-01T08:02:08.590Z,61.83
2016-12-01T08:03:08.146Z,63.17
2016-12-01T08:04:07.742Z,63.06
2016-12-01T08:05:08.396Z,62.49
2016-12-01T08:06:08.004Z,63.53
2016-12-01T08:07:07.555Z,63.06
2016-12-01T08:08:08.183Z,62.69
2016-12-01T08:09:07.818Z,63.17
2016-12-01T08:10:08.402Z,62.75
2016-12-01T08:11:08.080Z,62.72
2016-12-01T08:12:13.288Z,62.81
2016-12-01T08:13:07.856Z,63.46
2016-12-01T08:14:08.501Z,63.52
2016-12-01T08:15:08.042Z,63.33
2016-12-01T08:16:07.556Z,63.74
2016-12-01T08:17:08.320Z,63.42
2016-12-01T08:18:07.812Z,63.50
2016-12-01T08:19:08.424Z,63.44
2016-12-01T08:20:07.904Z,63.88
2016-12-01T08:21:08.490Z,63.45
2016-12-01T08:22:08.062Z,63.51
2016-12-01T08:23:07.620Z,63.81
2016-12-01T08:24:08.138Z,63.82
2016-12-01T08:25:07.712Z,63.75
2016-12-01T08:26:08.335Z,64.31
2016-12-01T08:27:07.852Z,64.73
2016-12-01T08:28:08.436Z,63.86
2016-12-01T08:29:07.999Z,64.17
2016-12-01T08:30:07.488Z,63.34
2016-12-01T08:31:08.052Z,63.82
2016-12-01T08:32:07.578Z,63.48
2016-12-01T08:33:08.098Z,63.78
2016-12-01T08:34:07.824Z,63.93
2016-12-01T08:35:08.400Z,63.84
2016-12-01T08:36:07.885Z,64.55
2016-12-01T08:37:08.469Z,64.41
2016-12-01T08:38:08.179Z,64.14
2016-12-01T08:39:07.678Z,64.58
2016-12-01T08:40:08.319Z,65.23
2016-12-01T08:41:07.834Z,64.98
2016-12-01T08:42:08.477Z,65.19
2016-12-01T08:43:08.159Z,65.07
2016-12-01T08:44:07.689Z,64.73
2016-12-01T08:45:08.337Z,64.42
2016-12-01T08:46:07.841Z,64.51
2016-12-01T08:47:08.453Z,64.19
2016-12-01T08:48:08.085Z,64.34
2016-12-01T08:49:07.616Z,65.13
2016-12-01T08:50:08.117Z,65.31
2016-12-01T08:51:07.653Z,65.05
2016-12-01T08:52:08.273Z,64.61
2016-12-01T08:53:07.887Z,64.52
2016-12-01T08:54:08.430Z,64.85
2016-12-01T08:55:08.012Z,64.62
2016-12-01T08:56:07.536Z,64.39
2016-12-01T08:57:08.038Z,64.55
2016-12-01T08:58:07.523Z,64.65
2016-12-01T08:59:08.034Z,64.96
2016-12-01T09:00:07.558Z,65.01
2016-12-01T09:01:08.037Z,65.01
2016-12-01T09:02:07.660Z,64.43
2016-12-01T09:03:08.388Z,64.32
2016-12-01T09:04:07.967Z,64.10
2016-12-01T09:05:07.496Z,64.30
2016-12-01T09:06:08.157Z,64.18
2016-12-01T09:07:08.040Z,64.05
2016-12-01T09:08:07.537Z,63.55
2016-12-01T09:09:08.139Z,64.39
2016-12-01T09:10:07.628Z,64.35
2016-12-01T09:11:08.118Z,63.78
2016-12-01T09:12:07.579Z,63.74
2016-12-01T09:13:08.135Z,63.09
2016-12-01T09:14:07.798Z,62.62
2016-12-01T09:15:08.292Z,63.56
2016-12-01T09:16:07.800Z,64.07
2016-12-01T09:17:08.490Z,63.18
2016-12-01T09:18:08.025Z,62.24
2016-12-01T09:19:07.692Z,62.39
2016-12-01T09:20:08.205Z,62.21
2016-12-01T09:21:07.849Z,62.48
2016-12-01T09:22:08.419Z,63.24
2016-12-01T09:23:08.020Z,60.94
2016-12-01T09:24:07.551Z,61.08
2016-12-01T09:25:08.185Z,61.49
2016-12-01T09:26:08.540Z,61.49
2016-12-01T09:27:08.143Z,61.44
2016-12-01T09:28:07.761Z,60.23
2016-12-01T09:29:08.424Z,59.74
2016-12-01T09:30:08.002Z,60.05
2016-12-01T09:31:07.834Z,59.92
2016-12-01T09:32:08.418Z,59.95
2016-12-01T09:33:07.845Z,58.73
2016-12-01T09:34:08.525Z,59.13
2016-12-01T09:35:08.167Z,58.28
2016-12-01T09:36:07.753Z,58.42
2016-12-01T09:37:08.215Z,58.22
2016-12-01T09:38:07.743Z,58.89
2016-12-01T09:39:08.371Z,58.79
2016-12-01T09:40:07.899Z,58.93
2016-12-01T09:41:08.509Z,58.24
2016-12-01T09:42:08.182Z,57.14
2016-12-01T09:43:07.676Z,57.21
2016-12-01T09:44:07.842Z,57.74
2016-12-01T09:45:08.455Z,57.29
2016-12-01T09:46:08.150Z,55.63
2016-12-01T09:47:07.768Z,56.48
2016-12-01T09:48:08.269Z,55.86
2016-12-01T09:49:07.850Z,55.82
2016-12-01T09:50:08.494Z,55.70
2016-12-01T09:51:08.007Z,55.39
2016-12-01T09:52:07.501Z,55.75
2016-12-01T09:53:13.650Z,56.14
2016-12-01T09:54:08.158Z,55.47
2016-12-01T09:55:07.811Z,55.21
2016-12-01T09:56:08.364Z,55.66
2016-12-01T09:57:07.969Z,54.70
2016-12-01T09:58:07.505Z,54.99
2016-12-01T09:59:08.101Z,54.66
2016-12-01T10:00:07.611Z,54.54
2016-12-01T10:01:08.130Z,54.72
2016-12-01T10:02:07.719Z,54.67
2016-12-01T10:03:08.240Z,54.60
2016-12-01T10:04:07.687Z,54.20
2016-12-01T10:05:08.340Z,54.28
2016-12-01T10:06:07.909Z,53.93
2016-12-01T10:07:08.545Z,54.37
2016-12-01T10:08:08.188Z,53.22
2016-12-01T10:09:07.735Z,53.25
2016-12-01T10:10:08.399Z,52.79
2016-12-01T10:11:08.065Z,52.63
2016-12-01T10:12:07.570Z,52.69
2016-12-01T10:13:08.129Z,52.31
2016-12-01T10:14:07.658Z,52.35
2016-12-01T10:15:08.295Z,52.42
2016-12-01T10:16:07.769Z,51.84
2016-12-01T10:17:08.467Z,51.68
2016-12-01T10:18:08.177Z,51.63
2016-12-01T10:19:07.751Z,51.43
2016-12-01T10:20:08.488Z,51.67
2016-12-01T10:21:08.052Z,51.45
2016-12-01T10:22:07.622Z,51.19
2016-12-01T10:23:08.206Z,51.30
2016-12-01T10:24:07.723Z,51.26
2016-12-01T10:25:08.408Z,50.53
2016-12-01T10:26:07.980Z,50.43
2016-12-01T10:27:07.586Z,50.30
2016-12-01T10:28:08.084Z,50.26
2016-12-01T10:29:07.529Z,49.95
2016-12-01T10:30:08.220Z,49.98
2016-12-01T10:31:07.687Z,49.92
2016-12-01T10:32:09.005Z,49.30
2016-12-01T10:33:07.463Z,48.76
2016-12-01T10:34:08.059Z,49.29
2016-12-01T10:35:07.602Z,48.81
2016-12-01T10:36:08.157Z,48.49
2016-12-01T10:37:07.662Z,48.22
2016-12-01T10:38:08.307Z,48.01
2016-12-01T10:39:07.930Z,48.02
2016-12-01T10:40:08.558Z,47.83
2016-12-01T10:41:08.233Z,48.14
2016-12-01T10:42:07.908Z,47.72
2016-12-01T10:43:08.546Z,47.55
2016-12-01T10:44:08.120Z,47.17
2016-12-01T10:45:07.678Z,46.73
2016-12-01T10:46:08.285Z,47.27
2016-12-01T10:47:08.347Z,45.01
2016-12-01T10:48:07.841Z,45.44
2016-12-01T10:49:08.442Z,45.48
2016-12-01T10:50:08.035Z,45.15
2016-12-01T10:51:07.605Z,45.22
2016-12-01T10:52:08.250Z,45.08
2016-12-01T10:53:07.760Z,44.24
2016-12-01T10:54:08.490Z,44.54
2016-12-01T10:55:08.145Z,44.03
2016-12-01T10:56:07.735Z,43.64
2016-12-01T10:57:08.283Z,43.99
2016-12-01T10:58:08.507Z,43.45
2016-12-01T10:59:08.111Z,43.22
2016-12-01T11:00:07.559Z,42.65
2016-12-01T11:01:08.230Z,43.14
2016-12-01T11:02:07.789Z,41.87
2016-12-01T11:03:08.393Z,41.84
2016-12-01T11:04:07.991Z,41.00
2016-12-01T11:05:07.505Z,41.44
2016-12-01T11:06:08.097Z,41.59
2016-12-01T11:07:07.652Z,41.11
2016-12-01T11:08:08.195Z,41.10
2016-12-01T11:09:07.696Z,41.70
2016-12-01T11:10:08.313Z,41.56
2016-12-01T11:11:07.952Z,41.77
2016-12-01T11:12:07.449Z,40.98
2016-12-01T11:13:08.100Z,41.10
2016-12-01T11:14:07.665Z,39.88
2016-12-01T11:15:08.303Z,40.51
2016-12-01T11:16:07.833Z,40.52
2016-12-01T11:17:08.545Z,40.77
2016-12-01T11:18:08.175Z,40.10
2016-12-01T11:19:07.783Z,39.72
2016-12-01T11:20:08.432Z,39.35
2016-12-01T11:21:08.055Z,39.63
2016-12-01T11:22:07.634Z,40.02
2016-12-01T11:23:08.251Z,39.60
2016-12-01T11:24:07.772Z,38.93
2016-12-01T11:25:08.282Z,39.15
2016-12-01T11:26:07.800Z,38.86
2016-12-01T11:27:08.323Z,39.12
2016-12-01T11:28:07.944Z,38.45
2016-12-01T11:29:07.522Z,38.80
2016-12-01T11:30:08.133Z,38.57
2016-12-01T11:31:07.736Z,38.44
2016-12-01T11:32:08.418Z,38.88
2016-12-01T11:33:07.916Z,38.16
2016-12-01T11:34:08.617Z,38.12
2016-12-01T11:35:08.290Z,38.43
2016-12-01T11:36:07.927Z,38.04
2016-12-01T11:37:08.479Z,37.70
2016-12-01T11:38:07.971Z,37.89
2016-12-01T11:39:07.575Z,37.52
2016-12-01T11:40:08.102Z,38.00
2016-12-01T11:41:07.661Z,37.57
2016-12-01T11:42:08.290Z,38.04
2016-12-01T11:43:07.841Z,36.89
2016-12-01T11:44:08.510Z,37.41
2016-12-01T11:45:08.050Z,37.57
2016-12-01T11:46:07.639Z,37.71
2016-12-01T11:47:08.214Z,37.75
2016-12-01T11:48:07.782Z,37.79
2016-12-01T11:49:08.366Z,37.07
2016-12-01T11:50:08.078Z,37.06
2016-12-01T11:51:07.762Z,36.64
2016-12-01T11:52:08.328Z,37.01
2016-12-01T11:53:07.943Z,36.97
2016-12-01T11:54:07.471Z,36.92
2016-12-01T11:55:08.063Z,37.54
2016-12-01T11:56:07.560Z,37.36
2016-12-01T11:57:08.189Z,37.09
2016-12-01T11:58:07.828Z,36.80
2016-12-01T11:59:08.382Z,36.88
2016-12-01T12:00:07.963Z,37.13
2016-12-01T12:01:07.532Z,37.06
2016-12-01T12:02:08.115Z,36.25
2016-12-01T12:03:07.682Z,36.59
2016-12-01T12:04:08.360Z,36.84
2016-12-01T12:05:07.892Z,36.90
2016-12-01T12:06:08.504Z,36.65
2016-12-01T12:07:08.151Z,36.94
2016-12-01T12:08:07.687Z,37.20
2016-12-01T12:09:08.413Z,36.96
2016-12-01T12:10:07.948Z,36.79
2016-12-01T12:11:07.523Z,37.08
2016-12-01T12:12:08.089Z,37.02
2016-12-01T12:13:07.574Z,37.28
2016-12-01T12:14:08.153Z,36.96
2016-12-01T12:15:07.659Z,37.63
2016-12-01T12:16:08.256Z,37.20
2016-12-01T12:17:07.890Z,37.45
2016-12-01T12:18:08.537Z,37.61
2016-12-01T12:19:08.051Z,37.72
2016-12-01T12:20:07.567Z,38.23
2016-12-01T12:21:08.152Z,37.65
2016-12-01T12:22:07.752Z,38.08
2016-12-01T12:23:08.443Z,38.01
2016-12-01T12:24:08.011Z,37.98
2016-12-01T12:25:07.533Z,38.51
2016-12-01T12:26:08.161Z,38.18
2016-12-01T12:27:07.826Z,38.18
2016-12-01T12:28:08.388Z,38.23
2016-12-01T12:29:07.935Z,38.32
2016-12-01T12:30:08.581Z,38.39
2016-12-01T12:31:08.228Z,38.26
2016-12-01T12:32:07.857Z,38.62
2016-12-01T12:33:08.521Z,38.85
2016-12-01T12:34:08.142Z,38.81
2016-12-01T12:35:07.641Z,38.87
2016-12-01T12:36:08.225Z,39.26
2016-12-01T12:37:07.765Z,39.57
2016-12-01T12:38:08.390Z,39.54
2016-12-01T12:39:08.004Z,39.73
2016-12-01T12:40:07.606Z,39.94
2016-12-01T12:41:08.264Z,40.17
2016-12-01T12:42:07.824Z,40.27
2016-12-01T12:43:08.419Z,40.37
2016-12-01T12:44:08.036Z,40.57
2016-12-01T12:45:07.622Z,40.81
2016-12-01T12:46:08.135Z,41.39
2016-12-01T12:47:07.685Z,41.50
2016-12-01T12:48:08.275Z,41.90
2016-12-01T12:49:07.800Z,42.07
2016-12-01T12:50:08.410Z,42.21
2016-12-01T12:51:07.985Z,42.45
2016-12-01T12:52:07.564Z,42.74